Portada
METAR-TAF:

METAR-TAF

Aeropuertos :

Clarksville, Tennessee, Estados Unidos

latitud: 36-37-19N, longitud: 087-24-54W, altitud: 168 m

Observación

El informe se hizo hace 19 minutos, a las 19:52 UTC
Viento calma
Temperatura 29°C
Humedad 55%
Presión 1024 hPa
Visibilidad: 16.1 km
Cielo despejado

METAR: KCKV 191952Z AUTO 00000KT 10SM CLR 29/19 A3023 RMK AO2 SLP230 T02940189

Hora: 15:11 (20:11 UTC)

Pronóstico

El informe se hizo hace 2 horas y 51 minutos, a las 17:20 UTC
Pronóstico válido del 19 a las 18 UTC al 20 a las 18 UTC
Viento 6 kt del sur-suroeste
Visibilidad: 10 km
Cielo despejado
A partir de las 20 a las 0100 UTC
Viento kt del norte
Visibilidad: 10 km
Nubes dispersas a una altura de 25000 ft

TAF: KCKV 191720Z 1918/2018 20006KT P6SM SKC FM200100 00000KT P6SM SCT250

Observaciones y pronósticos meteorológicos de más de 4000 aeropuertos (mensajes METAR y TAF).

Los puntos amarillos y rojos representan las estaciones disponibles.

Ponga el ratón en el punto deseado para ver el nombre de la estación.

Haga clic para ver las observaciones y los pronósticos meteorológicos.

Para cambiar el mapa : haga clic en los botones verdes con una cruz de color negro para hacer un zoom, en el botón verde con un guión para alejar o en las flechas verdes para mapas adyacentes.


METAR-TAF: